Carnival Victory — 3FFL8 — position and weather

sailwx.info

Track history (hours):
 
Tides and Currents Weather Stations Pressure Air Temp Water Temp Dewpoint Dewpoint Depression Visibility Wind Speed Wind Dir Waves Ship Positions

Carnival Victory

Operator: Carnival Cruise Lines

Last reported at 2019-Nov-19 10:00 UTC. Time now 2019-Nov-20 09:26 UTC.
Position N 24°18' W 081°36'.

Type: Passenger vessel. MMSI: 355263000.

Wind from 280 at 15 knots

Barometer 1011.8 mb
Air temperature 21.0 ° C
Dewpoint 14.7 ° C
Water temperature 26.0 ° C

Date/timePositionNaut miles runAvg speedWind from/ knotsBaromVisibWave heightAir tempDewpointWater temp
2019-Nov-19 10:00N 24°18' W 081°36'9812.2 280 / 151011.8 21.014.726.0
2019-Nov-19 01:59N 25°02' W 080°00'3413.9
2019-Nov-18 23:30N 25°36' W 079°57'1413.6
2019-Nov-18 22:30N 25°46' W 080°08'3 5.3
2019-Nov-18 22:00N 25°47' W 080°10'0 0.0
2019-Nov-18 21:28N 25°47' W 080°10'0 0.0
2019-Nov-18 20:28N 25°47' W 080°10'0 0.0
2019-Nov-18 19:58N 25°47' W 080°10'0 0.0
2019-Nov-18 19:28N 25°47' W 080°10'0 0.0
2019-Nov-18 15:58N 25°47' W 080°10'0 0.0
2019-Nov-18 15:28N 25°47' W 080°10'0 0.0
2019-Nov-18 12:58N 25°47' W 080°10'0 0.0
2019-Nov-18 12:28N 25°47' W 080°10'3 2.3
2019-Nov-18 11:00N 25°45' W 080°07'2214.4
2019-Nov-18 09:30N 25°53' W 079°44'121 2.7
2019-Nov-16 12:00N 25°54' W 077°30'9010.5 320 / 151010.1 31.027.130.0
2019-Nov-16 03:24N 26°17' W 079°07'410.5
2019-Nov-16 03:01N 26°16' W 079°11'510.4
2019-Nov-16 02:31N 26°14' W 079°16'4611.6
2019-Nov-15 22:31N 25°48' W 079°60'10 3.8
2019-Nov-15 19:58N 25°47' W 080°10'0 0.0
2019-Nov-15 18:58N 25°47' W 080°10'0 0.0
2019-Nov-15 17:58N 25°47' W 080°10'0 0.0
2019-Nov-15 15:28N 25°47' W 080°10'0 0.0
2019-Nov-15 13:28N 25°47' W 080°10'0 0.0
2019-Nov-15 11:58N 25°47' W 080°10'21 8.4
2019-Nov-15 09:31N 25°33' W 079°53'1414.3
2019-Nov-15 08:30N 25°19' W 079°52'15516.3
2019-Nov-14 23:00N 23°30' W 081°54'18416.7 040 / 111014.3 31.024.230.0
2019-Nov-14 12:00N 22°24' W 085°00'3316.4 080 / 171014.910.8 31.025.7
2019-Nov-14 10:00N 22°00' W 085°24'11117.9 060 / 171013.1 31.025.730.0
2019-Nov-14 03:47N 20°43' W 086°50'17 8.7
2019-Nov-14 01:53N 20°29' W 086°59'0 0.0
2019-Nov-13 23:29N 20°29' W 086°59'0 0.0
2019-Nov-13 21:29N 20°29' W 086°59'0 0.0
2019-Nov-13 20:29N 20°29' W 086°59'0 0.0
2019-Nov-13 18:29N 20°29' W 086°59'0 0.0
2019-Nov-13 17:59N 20°29' W 086°59'2 1.1
2019-Nov-13 16:01N 20°31' W 086°59'7314.5
2019-Nov-13 11:00N 21°18' W 086°00'41011.7 060 / 191012.6 31.025.730.0
2019-Nov-12 00:00N 25°16' W 079°56'3212.6
2019-Nov-11 21:30N 25°46' W 080°08'2 4.1
2019-Nov-11 20:58N 25°47' W 080°10'0 0.0
2019-Nov-11 18:28N 25°47' W 080°10'0 0.0
2019-Nov-11 17:28N 25°47' W 080°10'0 0.0
2019-Nov-11 16:58N 25°47' W 080°10'0 0.0
2019-Nov-11 16:28N 25°47' W 080°10'0 0.0
2019-Nov-11 14:58N 25°47' W 080°10'0 0.0
2019-Nov-11 12:55N 25°47' W 080°10'0 0.0
2019-Nov-11 11:58N 25°47' W 080°10'7 4.4
2019-Nov-11 10:30N 25°46' W 080°03'1912.5
2019-Nov-11 09:00N 25°53' W 079°44'16 0.4
2019-Nov-09 16:30N 25°39' W 079°35'1110.7
2019-Nov-09 15:30N 25°29' W 079°33'4710.3
2019-Nov-09 11:00N 24°42' W 079°36'   280 / 61012.6 31.025.730.0
Track history (hours):
 
Tides and Currents Weather Stations Pressure Air Temp Water Temp Dewpoint Dewpoint Depression Visibility Wind Speed Wind Dir Waves Ship Positions

Carnival Victory

Operator: Carnival Cruise Lines

Last reported at 2019-Nov-19 10:00 UTC. Time now 2019-Nov-20 09:26 UTC.
Position N 24°18' W 081°36'.

Type: Passenger vessel. MMSI: 355263000.

Wind from 280 at 15 knots

Barometer 1011.8 mb
Air temperature 21.0 ° C
Dewpoint 14.7 ° C
Water temperature 26.0 ° C

Date/timePositionNaut miles runAvg speedWind from/ knotsBaromVisibWave heightAir tempDewpointWater temp
2019-Nov-19 10:00N 24°18' W 081°36'9812.2 280 / 151011.8 21.014.726.0
2019-Nov-19 01:59N 25°02' W 080°00'3413.9
2019-Nov-18 23:30N 25°36' W 079°57'1413.6
2019-Nov-18 22:30N 25°46' W 080°08'3 5.3
2019-Nov-18 22:00N 25°47' W 080°10'0 0.0
2019-Nov-18 21:28N 25°47' W 080°10'0 0.0
2019-Nov-18 20:28N 25°47' W 080°10'0 0.0
2019-Nov-18 19:58N 25°47' W 080°10'0 0.0
2019-Nov-18 19:28N 25°47' W 080°10'0 0.0
2019-Nov-18 15:58N 25°47' W 080°10'0 0.0
2019-Nov-18 15:28N 25°47' W 080°10'0 0.0
2019-Nov-18 12:58N 25°47' W 080°10'0 0.0
2019-Nov-18 12:28N 25°47' W 080°10'3 2.3
2019-Nov-18 11:00N 25°45' W 080°07'2214.4
2019-Nov-18 09:30N 25°53' W 079°44'121 2.7
2019-Nov-16 12:00N 25°54' W 077°30'9010.5 320 / 151010.1 31.027.130.0
2019-Nov-16 03:24N 26°17' W 079°07'410.5
2019-Nov-16 03:01N 26°16' W 079°11'510.4
2019-Nov-16 02:31N 26°14' W 079°16'4611.6
2019-Nov-15 22:31N 25°48' W 079°60'10 3.8
2019-Nov-15 19:58N 25°47' W 080°10'0 0.0
2019-Nov-15 18:58N 25°47' W 080°10'0 0.0
2019-Nov-15 17:58N 25°47' W 080°10'0 0.0
2019-Nov-15 15:28N 25°47' W 080°10'0 0.0
2019-Nov-15 13:28N 25°47' W 080°10'0 0.0
2019-Nov-15 11:58N 25°47' W 080°10'21 8.4
2019-Nov-15 09:31N 25°33' W 079°53'1414.3
2019-Nov-15 08:30N 25°19' W 079°52'15516.3
2019-Nov-14 23:00N 23°30' W 081°54'18416.7 040 / 111014.3 31.024.230.0
2019-Nov-14 12:00N 22°24' W 085°00'3316.4 080 / 171014.910.8 31.025.7
2019-Nov-14 10:00N 22°00' W 085°24'11117.9 060 / 171013.1 31.025.730.0
2019-Nov-14 03:47N 20°43' W 086°50'17 8.7
2019-Nov-14 01:53N 20°29' W 086°59'0 0.0
2019-Nov-13 23:29N 20°29' W 086°59'0 0.0
2019-Nov-13 21:29N 20°29' W 086°59'0 0.0
2019-Nov-13 20:29N 20°29' W 086°59'0 0.0
2019-Nov-13 18:29N 20°29' W 086°59'0 0.0
2019-Nov-13 17:59N 20°29' W 086°59'2 1.1
2019-Nov-13 16:01N 20°31' W 086°59'7314.5
2019-Nov-13 11:00N 21°18' W 086°00'41011.7 060 / 191012.6 31.025.730.0
2019-Nov-12 00:00N 25°16' W 079°56'3212.6
2019-Nov-11 21:30N 25°46' W 080°08'2 4.1
2019-Nov-11 20:58N 25°47' W 080°10'0 0.0
2019-Nov-11 18:28N 25°47' W 080°10'0 0.0
2019-Nov-11 17:28N 25°47' W 080°10'0 0.0
2019-Nov-11 16:58N 25°47' W 080°10'0 0.0
2019-Nov-11 16:28N 25°47' W 080°10'0 0.0
2019-Nov-11 14:58N 25°47' W 080°10'0 0.0
2019-Nov-11 12:55N 25°47' W 080°10'0 0.0
2019-Nov-11 11:58N 25°47' W 080°10'7 4.4
2019-Nov-11 10:30N 25°46' W 080°03'1912.5
2019-Nov-11 09:00N 25°53' W 079°44'16 0.4
2019-Nov-09 16:30N 25°39' W 079°35'1110.7
2019-Nov-09 15:30N 25°29' W 079°33'4710.3
2019-Nov-09 11:00N 24°42' W 079°36'   280 / 61012.6 31.025.730.0

Dump ship's entire track history